createdAt,value
2018-12-30T00:01:41.781Z,101214.59
2018-12-30T00:04:10.141Z,101202.66
2018-12-30T00:06:40.164Z,101211.34
2018-12-30T00:09:08.936Z,101201.52
2018-12-30T00:11:37.685Z,101216.41
2018-12-30T00:14:06.119Z,101218.05
2018-12-30T00:16:34.445Z,101226.61
2018-12-30T00:19:02.854Z,101222.72
2018-12-30T00:21:31.303Z,101227.76
2018-12-30T00:23:59.734Z,101224.88
2018-12-30T00:26:30.905Z,101238.36
2018-12-30T00:28:59.625Z,101248.23
2018-12-30T00:31:28.061Z,101240.31
2018-12-30T00:33:56.493Z,101237.16
2018-12-30T00:36:24.952Z,101251.03
2018-12-30T00:38:53.285Z,101266.02
2018-12-30T00:41:21.640Z,101268.64
2018-12-30T00:43:50.297Z,101264.58
2018-12-30T00:46:18.738Z,101285.28
2018-12-30T00:48:47.786Z,101280.48
2018-12-30T00:51:17.227Z,101293.27
2018-12-30T00:53:45.825Z,101288.91
2018-12-30T00:56:14.843Z,101287.03
2018-12-30T00:58:43.148Z,101289.79
2018-12-30T01:01:11.828Z,101296.86
2018-12-30T01:03:40.196Z,101280.94
2018-12-30T01:06:08.962Z,101281.72
2018-12-30T01:08:37.297Z,101276.20
2018-12-30T01:11:06.085Z,101280.61
2018-12-30T01:13:35.142Z,101279.01
2018-12-30T01:16:03.510Z,101267.77
2018-12-30T01:18:31.941Z,101273.80
2018-12-30T01:21:00.311Z,101276.06
2018-12-30T01:23:28.717Z,101268.62
2018-12-30T01:25:57.169Z,101271.87
2018-12-30T01:28:25.635Z,101287.22
2018-12-30T01:30:53.969Z,101293.89
2018-12-30T01:33:22.397Z,101301.81
2018-12-30T01:35:50.834Z,101297.87
2018-12-30T01:38:19.163Z,101298.80
2018-12-30T01:40:48.296Z,101302.44
2018-12-30T01:43:16.701Z,101309.36
2018-12-30T01:45:45.055Z,101300.52
2018-12-30T01:48:14.068Z,101313.35
2018-12-30T01:50:42.461Z,101313.19
2018-12-30T01:53:10.873Z,101313.39
2018-12-30T01:55:39.285Z,101326.37
2018-12-30T01:58:07.711Z,101327.36
2018-12-30T02:00:36.063Z,101320.00
2018-12-30T02:03:04.516Z,101330.57
2018-12-30T02:05:33.210Z,101330.70
2018-12-30T02:08:01.646Z,101341.48
2018-12-30T02:10:29.986Z,101335.54
2018-12-30T02:12:58.322Z,101341.13
2018-12-30T02:15:27.668Z,101339.77
2018-12-30T02:17:56.043Z,101345.80
2018-12-30T02:20:24.475Z,101346.45
2018-12-30T02:22:52.792Z,101347.98
2018-12-30T02:25:21.143Z,101342.16
2018-12-30T02:27:49.511Z,101343.11
2018-12-30T02:30:18.316Z,101351.61
2018-12-30T02:32:46.771Z,101346.39
2018-12-30T02:35:16.199Z,101355.86
2018-12-30T02:37:44.536Z,101358.73
2018-12-30T02:40:13.398Z,101360.63
2018-12-30T02:42:41.741Z,101362.81
2018-12-30T02:45:10.056Z,101369.78
2018-12-30T02:47:38.489Z,101363.23
2018-12-30T02:50:07.407Z,101376.88
2018-12-30T02:52:35.762Z,101376.88
2018-12-30T02:55:05.027Z,101377.69
2018-12-30T02:57:33.476Z,101382.27
2018-12-30T03:00:02.155Z,101396.75
2018-12-30T03:02:30.581Z,101395.05
2018-12-30T03:04:59.108Z,101387.73
2018-12-30T03:07:27.665Z,101391.73
2018-12-30T03:09:56.010Z,101388.84
2018-12-30T03:12:24.353Z,101394.48
2018-12-30T03:14:52.703Z,101389.41
2018-12-30T03:17:21.029Z,101381.05
2018-12-30T03:19:49.459Z,101386.52
2018-12-30T03:22:17.789Z,101390.40
2018-12-30T03:24:46.458Z,101397.42
2018-12-30T03:27:15.022Z,101398.06
2018-12-30T03:29:43.428Z,101408.75
2018-12-30T03:32:11.752Z,101404.09
2018-12-30T03:34:40.135Z,101404.77
2018-12-30T03:37:08.454Z,101413.34
2018-12-30T03:39:36.879Z,101420.17
2018-12-30T03:42:05.263Z,101416.86
2018-12-30T03:44:33.584Z,101417.50
2018-12-30T03:47:01.925Z,101414.53
2018-12-30T03:49:30.271Z,101419.38
2018-12-30T03:51:58.596Z,101431.97
2018-12-30T03:54:26.945Z,101421.02
2018-12-30T03:56:55.365Z,101431.28
2018-12-30T03:59:23.701Z,101426.42
2018-12-30T04:01:52.038Z,101431.77
2018-12-30T04:04:20.404Z,101437.31
2018-12-30T04:06:48.732Z,101439.54
2018-12-30T04:09:17.154Z,101439.16
2018-12-30T04:11:45.555Z,101442.41
2018-12-30T04:14:14.346Z,101438.64
2018-12-30T04:16:42.660Z,101445.10
2018-12-30T04:19:11.012Z,101438.97
2018-12-30T04:21:39.418Z,101434.69
2018-12-30T04:24:07.732Z,101439.11
2018-12-30T04:26:36.078Z,101437.02
2018-12-30T04:29:04.425Z,101446.95
2018-12-30T04:31:32.800Z,101454.50
2018-12-30T04:34:01.136Z,101462.52
2018-12-30T04:36:29.536Z,101462.52
2018-12-30T04:38:57.880Z,101464.92
2018-12-30T04:41:26.201Z,101475.35
2018-12-30T04:43:54.549Z,101479.66
2018-12-30T04:46:22.895Z,101479.52
2018-12-30T04:48:51.238Z,101486.44
2018-12-30T04:51:19.631Z,101493.31
2018-12-30T04:53:47.973Z,101488.34
2018-12-30T04:56:16.282Z,101490.38
2018-12-30T04:58:45.130Z,101480.28
2018-12-30T05:01:14.059Z,101486.95
2018-12-30T05:03:42.390Z,101492.91
2018-12-30T05:06:10.702Z,101488.34
2018-12-30T05:08:39.027Z,101483.79
2018-12-30T05:11:07.438Z,101493.50
2018-12-30T05:13:35.742Z,101486.88
2018-12-30T05:16:04.051Z,101495.14
2018-12-30T05:18:32.398Z,101492.73
2018-12-30T05:21:00.774Z,101505.03
2018-12-30T05:23:29.155Z,101514.09
2018-12-30T05:25:57.509Z,101513.54
2018-12-30T05:28:25.829Z,101516.84
2018-12-30T05:30:54.168Z,101530.20
2018-12-30T05:33:22.507Z,101534.46
2018-12-30T05:35:51.353Z,101546.08
2018-12-30T05:38:20.151Z,101558.84
2018-12-30T05:40:48.479Z,101562.59
2018-12-30T05:43:16.862Z,101553.45
2018-12-30T05:45:45.222Z,101568.98
2018-12-30T05:48:14.060Z,101569.27
2018-12-30T05:50:42.372Z,101574.81
2018-12-30T05:53:10.754Z,101572.48
2018-12-30T05:55:39.081Z,101571.24
2018-12-30T05:58:07.428Z,101576.99
2018-12-30T06:00:35.842Z,101573.63
2018-12-30T06:03:04.203Z,101590.34
2018-12-30T06:05:32.514Z,101603.00
2018-12-30T06:08:00.852Z,101602.86
2018-12-30T06:10:29.183Z,101617.90
2018-12-30T06:12:57.528Z,101618.39
2018-12-30T06:15:25.848Z,101627.95
2018-12-30T06:17:54.200Z,101628.17
2018-12-30T06:20:22.521Z,101642.88
2018-12-30T06:22:50.860Z,101644.67
2018-12-30T06:25:19.289Z,101660.92
2018-12-30T06:27:47.760Z,101659.14
2018-12-30T06:30:16.593Z,101666.11
2018-12-30T06:32:45.313Z,101671.94
2018-12-30T06:35:14.014Z,101674.09
2018-12-30T06:37:42.342Z,101671.84
2018-12-30T06:40:11.523Z,101677.54
2018-12-30T06:42:40.048Z,101678.44
2018-12-30T06:45:08.365Z,101682.94
2018-12-30T06:47:36.699Z,101686.71
2018-12-30T06:50:06.069Z,101682.17
2018-12-30T06:52:34.398Z,101684.28
2018-12-30T06:55:02.722Z,101685.33
2018-12-30T06:57:31.056Z,101682.30
2018-12-30T06:59:59.403Z,101676.96
2018-12-30T07:02:27.736Z,101672.86
2018-12-30T07:04:56.100Z,101675.88
2018-12-30T07:07:24.692Z,101670.97
2018-12-30T07:09:53.039Z,101674.63
2018-12-30T07:12:21.358Z,101668.65
2018-12-30T07:14:49.685Z,101681.61
2018-12-30T07:17:17.994Z,101675.64
2018-12-30T07:19:46.365Z,101676.27
2018-12-30T07:22:14.679Z,101682.29
2018-12-30T07:24:43.036Z,101689.60
2018-12-30T07:27:11.328Z,101695.20
2018-12-30T07:29:39.669Z,101700.53
2018-12-30T07:32:08.261Z,101704.01
2018-12-30T07:34:36.589Z,101713.01
2018-12-30T07:37:04.912Z,101717.23
2018-12-30T07:39:33.246Z,101727.64
2018-12-30T07:42:01.561Z,101735.75
2018-12-30T07:44:29.906Z,101739.13
2018-12-30T07:46:58.229Z,101749.32
2018-12-30T07:49:26.584Z,101749.73
2018-12-30T07:51:54.921Z,101758.53
2018-12-30T07:54:23.258Z,101754.19
2018-12-30T07:56:51.590Z,101768.06
2018-12-30T07:59:19.918Z,101774.09
2018-12-30T08:01:48.263Z,101774.50
2018-12-30T08:04:16.598Z,101784.22
2018-12-30T08:06:44.934Z,101771.70
2018-12-30T08:09:13.266Z,101770.92
2018-12-30T08:11:41.649Z,101781.33
2018-12-30T08:14:10.193Z,101779.93
2018-12-30T08:16:38.549Z,101773.04
2018-12-30T08:19:06.878Z,101759.41
2018-12-30T08:21:35.221Z,101770.55
2018-12-30T08:24:04.406Z,101773.88
2018-12-30T08:26:32.784Z,101778.87
2018-12-30T08:29:01.460Z,101800.53
2018-12-30T08:31:29.797Z,101796.88
2018-12-30T08:33:58.160Z,101804.41
2018-12-30T08:36:28.077Z,101799.14
2018-12-30T08:38:56.419Z,101804.41
2018-12-30T08:41:24.763Z,101794.00
2018-12-30T08:43:53.106Z,101796.12
2018-12-30T08:46:21.487Z,101791.55
2018-12-30T08:48:49.874Z,101798.35
2018-12-30T08:51:18.289Z,101796.03
2018-12-30T08:53:46.629Z,101801.47
2018-12-30T08:56:15.168Z,101797.31
2018-12-30T08:58:43.770Z,101806.47
2018-12-30T09:01:12.180Z,101810.83
2018-12-30T09:03:40.560Z,101811.88
2018-12-30T09:06:09.282Z,101817.92
2018-12-30T09:08:37.595Z,101821.23
2018-12-30T09:11:05.990Z,101822.52
2018-12-30T09:13:34.328Z,101825.09
2018-12-30T09:16:02.658Z,101834.40
2018-12-30T09:18:30.981Z,101824.83
2018-12-30T09:20:59.332Z,101828.56
2018-12-30T09:23:27.681Z,101825.69
2018-12-30T09:25:56.014Z,101828.28
2018-12-30T09:28:24.354Z,101833.48
2018-12-30T09:30:52.681Z,101834.33
2018-12-30T09:33:21.027Z,101834.41
2018-12-30T09:35:49.483Z,101847.70
2018-12-30T09:38:17.905Z,101846.37
2018-12-30T09:40:46.249Z,101856.08
2018-12-30T09:43:14.609Z,101855.87
2018-12-30T09:45:42.924Z,101854.34
2018-12-30T09:48:11.454Z,101854.02
2018-12-30T09:50:39.818Z,101853.54
2018-12-30T09:53:08.511Z,101849.09
2018-12-30T09:55:37.809Z,101838.54
2018-12-30T09:58:06.156Z,101845.86
2018-12-30T10:00:34.494Z,101851.14
2018-12-30T10:03:02.845Z,101852.91
2018-12-30T10:05:31.197Z,101854.66
2018-12-30T10:07:59.566Z,101859.79
2018-12-30T10:10:27.901Z,101870.78
2018-12-30T10:12:56.316Z,101869.24
2018-12-30T10:15:25.810Z,101874.52
2018-12-30T10:17:54.135Z,101875.34
2018-12-30T10:20:22.498Z,101880.95
2018-12-30T10:22:50.871Z,101883.05
2018-12-30T10:25:21.211Z,101881.59
2018-12-30T10:27:49.546Z,101877.98
2018-12-30T10:30:17.874Z,101877.29
2018-12-30T10:32:46.181Z,101875.45
2018-12-30T10:35:14.532Z,101867.92
2018-12-30T10:37:42.920Z,101867.72
2018-12-30T10:40:11.912Z,101866.56
2018-12-30T10:42:40.282Z,101872.83
2018-12-30T10:45:09.895Z,101863.30
2018-12-30T10:47:38.240Z,101862.60
2018-12-30T10:50:06.749Z,101860.33
2018-12-30T10:52:35.095Z,101865.44
2018-12-30T10:55:03.507Z,101876.85
2018-12-30T10:57:31.852Z,101882.05
2018-12-30T11:00:00.238Z,101877.70
2018-12-30T11:02:29.067Z,101878.25
2018-12-30T11:04:58.260Z,101883.77
2018-12-30T11:07:27.465Z,101884.49
2018-12-30T11:09:56.369Z,101894.81
2018-12-30T11:12:25.508Z,101890.51
2018-12-30T11:14:54.544Z,101895.88
2018-12-30T11:17:22.928Z,101890.42
2018-12-30T11:19:51.325Z,101896.86
2018-12-30T11:22:19.805Z,101889.82
2018-12-30T11:24:48.189Z,101884.58
2018-12-30T11:27:16.542Z,101880.37
2018-12-30T11:29:44.862Z,101882.16
2018-12-30T11:32:15.466Z,101873.95
2018-12-30T11:34:43.807Z,101871.47
2018-12-30T11:37:12.153Z,101874.48
2018-12-30T11:39:40.495Z,101856.81
2018-12-30T11:42:09.285Z,101847.52
2018-12-30T11:44:37.614Z,101845.34
2018-12-30T11:47:05.997Z,101837.60
2018-12-30T11:49:34.318Z,101835.97
2018-12-30T11:52:02.672Z,101833.05
2018-12-30T11:54:31.036Z,101834.84
2018-12-30T11:56:59.397Z,101832.97
2018-12-30T11:59:27.752Z,101824.09
2018-12-30T12:01:56.086Z,101823.73
2018-12-30T12:04:24.413Z,101820.28
2018-12-30T12:06:52.743Z,101825.73
2018-12-30T12:09:21.126Z,101810.47
2018-12-30T12:11:49.434Z,101816.17
2018-12-30T12:14:17.796Z,101815.91
2018-12-30T12:16:46.105Z,101810.86
2018-12-30T12:19:14.450Z,101804.73
2018-12-30T12:21:42.776Z,101804.82
2018-12-30T12:24:11.285Z,101805.22
2018-12-30T12:26:39.841Z,101805.23
2018-12-30T12:29:08.506Z,101806.86
2018-12-30T12:31:36.851Z,101805.67
2018-12-30T12:34:05.203Z,101807.70
2018-12-30T12:36:33.524Z,101808.69
2018-12-30T12:39:01.879Z,101810.67
2018-12-30T12:41:30.221Z,101805.02
2018-12-30T12:43:58.582Z,101799.28
2018-12-30T12:46:26.903Z,101806.92
2018-12-30T12:48:55.251Z,101801.66
2018-12-30T12:51:23.594Z,101801.81
2018-12-30T12:53:51.951Z,101797.80
2018-12-30T12:56:20.292Z,101810.33
2018-12-30T12:58:48.644Z,101815.53
2018-12-30T13:01:16.966Z,101817.06
2018-12-30T13:03:45.309Z,101817.21
2018-12-30T13:06:13.622Z,101817.86
2018-12-30T13:08:41.956Z,101814.94
2018-12-30T13:11:10.508Z,101816.77
2018-12-30T13:13:38.832Z,101814.29
2018-12-30T13:16:07.309Z,101811.99
2018-12-30T13:18:35.652Z,101812.02
2018-12-30T13:21:03.987Z,101822.92
2018-12-30T13:23:32.327Z,101830.05
2018-12-30T13:26:00.649Z,101835.87
2018-12-30T13:28:28.974Z,101829.33
2018-12-30T13:30:57.287Z,101840.61
2018-12-30T13:33:25.612Z,101838.63
2018-12-30T13:35:53.945Z,101839.53
2018-12-30T13:38:28.231Z,101832.59
2018-12-30T13:40:52.644Z,101841.59
2018-12-30T13:43:20.978Z,101846.72
2018-12-30T13:45:49.332Z,101839.33
2018-12-30T13:48:17.679Z,101837.98
2018-12-30T13:50:46.039Z,101845.32
2018-12-30T13:53:14.367Z,101853.98
2018-12-30T13:55:42.705Z,101864.11
2018-12-30T13:58:11.241Z,101865.23
2018-12-30T14:00:39.590Z,101874.75
2018-12-30T14:03:08.213Z,101888.98
2018-12-30T14:05:36.545Z,101884.91
2018-12-30T14:08:04.923Z,101890.73
2018-12-30T14:10:33.263Z,101881.93
2018-12-30T14:13:01.921Z,101872.49
2018-12-30T14:15:30.475Z,101876.20
2018-12-30T14:17:59.084Z,101891.84
2018-12-30T14:20:27.466Z,101889.53
2018-12-30T14:22:55.798Z,101891.41
2018-12-30T14:25:24.167Z,101895.48
2018-12-30T14:27:52.492Z,101895.56
2018-12-30T14:30:20.867Z,101893.42
2018-12-30T14:32:49.175Z,101889.86
2018-12-30T14:35:17.531Z,101890.98
2018-12-30T14:37:45.862Z,101891.77
2018-12-30T14:40:14.213Z,101901.95
2018-12-30T14:42:42.557Z,101903.02
2018-12-30T14:45:12.057Z,101906.11
2018-12-30T14:47:40.452Z,101892.53
2018-12-30T14:50:10.688Z,101891.55
2018-12-30T14:52:39.093Z,101891.55
2018-12-30T14:55:08.028Z,101888.42
2018-12-30T14:57:36.346Z,101890.50
2018-12-30T15:00:06.544Z,101886.02
2018-12-30T15:02:35.384Z,101885.83
2018-12-30T15:05:03.961Z,101886.48
2018-12-30T15:07:32.321Z,101889.06
2018-12-30T15:10:00.660Z,101887.23
2018-12-30T15:12:28.973Z,101885.27
2018-12-30T15:14:57.327Z,101897.90
2018-12-30T15:17:25.645Z,101909.30
2018-12-30T15:19:53.963Z,101916.27
2018-12-30T15:22:22.279Z,101915.88
2018-12-30T15:24:50.591Z,101906.13
2018-12-30T15:27:18.934Z,101901.91
2018-12-30T15:29:47.250Z,101901.48
2018-12-30T15:32:15.619Z,101895.23
2018-12-30T15:34:43.967Z,101889.81
2018-12-30T15:37:12.344Z,101896.98
2018-12-30T15:39:40.709Z,101893.16
2018-12-30T15:42:09.267Z,101893.86
2018-12-30T15:44:37.601Z,101894.63
2018-12-30T15:47:05.921Z,101896.61
2018-12-30T15:49:34.306Z,101896.18
2018-12-30T15:52:02.692Z,101880.28
2018-12-30T15:54:31.060Z,101874.98
2018-12-30T15:56:59.403Z,101862.00
2018-12-30T15:59:27.778Z,101858.13
2018-12-30T16:01:57.059Z,101856.02
2018-12-30T16:04:25.548Z,101853.42
2018-12-30T16:06:53.996Z,101858.20
2018-12-30T16:09:22.338Z,101857.95
2018-12-30T16:11:50.695Z,101859.65
2018-12-30T16:14:18.993Z,101856.41
2018-12-30T16:16:47.378Z,101869.49
2018-12-30T16:19:15.805Z,101882.92
2018-12-30T16:21:44.175Z,101883.72
2018-12-30T16:24:12.693Z,101878.52
2018-12-30T16:26:41.038Z,101868.39
2018-12-30T16:29:09.361Z,101868.50
2018-12-30T16:31:37.682Z,101865.59
2018-12-30T16:34:06.051Z,101854.69
2018-12-30T16:36:34.366Z,101864.25
2018-12-30T16:39:02.770Z,101879.09
2018-12-30T16:41:31.137Z,101879.20
2018-12-30T16:43:59.473Z,101878.94
2018-12-30T16:46:27.790Z,101877.92
2018-12-30T16:48:56.228Z,101884.29
2018-12-30T16:51:24.589Z,101885.67
2018-12-30T16:53:52.942Z,101883.58
2018-12-30T16:56:21.265Z,101886.39
2018-12-30T16:58:49.603Z,101887.76
2018-12-30T17:01:17.933Z,101879.55
2018-12-30T17:03:46.279Z,101882.25
2018-12-30T17:06:14.962Z,101881.19
2018-12-30T17:08:43.277Z,101882.80
2018-12-30T17:11:11.620Z,101888.98
2018-12-30T17:13:40.046Z,101888.03
2018-12-30T17:16:11.506Z,101874.86
2018-12-30T17:18:42.961Z,101865.16
2018-12-30T17:21:11.272Z,101869.23
2018-12-30T17:23:39.672Z,101868.23
2018-12-30T17:26:07.999Z,101857.73
2018-12-30T17:28:36.333Z,101869.64
2018-12-30T17:31:04.708Z,101865.47
2018-12-30T17:33:33.020Z,101864.20
2018-12-30T17:36:01.390Z,101867.38
2018-12-30T17:38:30.194Z,101866.48
2018-12-30T17:41:01.686Z,101877.98
2018-12-30T17:43:28.991Z,101867.69
2018-12-30T17:45:57.346Z,101868.98
2018-12-30T17:48:25.712Z,101874.19
2018-12-30T17:50:54.029Z,101885.58
2018-12-30T17:53:22.353Z,101869.10
2018-12-30T17:55:51.131Z,101870.32
2018-12-30T17:58:19.516Z,101873.13
2018-12-30T18:00:47.850Z,101879.31
2018-12-30T18:03:16.686Z,101880.98
2018-12-30T18:05:45.069Z,101896.95
2018-12-30T18:08:13.677Z,101900.14
2018-12-30T18:10:42.007Z,101894.33
2018-12-30T18:13:10.320Z,101897.08
2018-12-30T18:15:38.782Z,101891.38
2018-12-30T18:18:07.158Z,101898.60
2018-12-30T18:20:35.585Z,101900.36
2018-12-30T18:23:03.899Z,101890.52
2018-12-30T18:25:32.241Z,101893.03
2018-12-30T18:28:00.554Z,101892.13
2018-12-30T18:30:28.899Z,101896.35
2018-12-30T18:32:57.271Z,101895.21
2018-12-30T18:35:25.586Z,101897.87
2018-12-30T18:37:53.962Z,101898.91
2018-12-30T18:40:22.348Z,101890.19
2018-12-30T18:42:50.758Z,101891.58
2018-12-30T18:45:19.342Z,101891.09
2018-12-30T18:47:47.714Z,101897.54
2018-12-30T18:50:16.932Z,101892.56
2018-12-30T18:52:45.388Z,101896.36
2018-12-30T18:55:15.852Z,101905.08
2018-12-30T18:57:44.180Z,101907.33
2018-12-30T19:00:12.552Z,101906.75
2018-12-30T19:02:40.980Z,101904.66
2018-12-30T19:05:09.379Z,101920.94
2018-12-30T19:07:37.725Z,101915.25
2018-12-30T19:10:06.601Z,101908.86
2018-12-30T19:12:34.930Z,101901.19
2018-12-30T19:15:03.885Z,101904.22
2018-12-30T19:17:32.232Z,101899.43
2018-12-30T19:20:00.558Z,101890.73
2018-12-30T19:22:28.909Z,101898.53
2018-12-30T19:24:57.226Z,101895.16
2018-12-30T19:27:25.600Z,101900.65
2018-12-30T19:29:53.934Z,101912.04
2018-12-30T19:32:22.264Z,101913.29
2018-12-30T19:34:50.670Z,101913.78
2018-12-30T19:37:19.020Z,101917.80
2018-12-30T19:39:47.365Z,101911.19
2018-12-30T19:42:16.016Z,101921.66
2018-12-30T19:44:44.357Z,101920.88
2018-12-30T19:47:12.866Z,101914.13
2018-12-30T19:50:06.921Z,101920.16
2018-12-30T19:52:35.337Z,101918.00
2018-12-30T19:55:03.923Z,101921.23
2018-12-30T19:57:32.297Z,101928.11
2018-12-30T20:00:00.971Z,101925.45
2018-12-30T20:02:29.292Z,101918.69
2018-12-30T20:04:57.650Z,101920.88
2018-12-30T20:07:26.170Z,101923.77
2018-12-30T20:09:54.514Z,101914.70
2018-12-30T20:12:23.762Z,101908.56
2018-12-30T20:14:52.189Z,101908.80
2018-12-30T20:17:20.523Z,101900.08
2018-12-30T20:19:48.888Z,101896.80
2018-12-30T20:22:17.260Z,101898.34
2018-12-30T20:24:45.638Z,101885.61
2018-12-30T20:27:14.311Z,101888.82
2018-12-30T20:29:42.605Z,101884.78
2018-12-30T20:32:10.943Z,101879.78
2018-12-30T20:34:39.297Z,101868.69
2018-12-30T20:37:07.626Z,101871.75
2018-12-30T20:39:35.980Z,101871.89
2018-12-30T20:42:04.385Z,101870.48
2018-12-30T20:44:32.739Z,101864.33
2018-12-30T20:47:01.072Z,101873.25
2018-12-30T20:49:29.433Z,101870.64
2018-12-30T20:51:57.773Z,101870.37
2018-12-30T20:54:26.520Z,101862.70
2018-12-30T20:56:54.869Z,101865.81
2018-12-30T20:59:23.258Z,101865.09
2018-12-30T21:01:51.584Z,101863.91
2018-12-30T21:04:19.909Z,101863.33
2018-12-30T21:06:48.446Z,101863.42
2018-12-30T21:09:17.105Z,101858.59
2018-12-30T21:11:45.404Z,101858.37
2018-12-30T21:14:14.303Z,101854.23
2018-12-30T21:16:42.617Z,101848.67
2018-12-30T21:19:10.977Z,101847.34
2018-12-30T21:21:39.298Z,101848.45
2018-12-30T21:24:07.647Z,101845.50
2018-12-30T21:26:35.957Z,101836.52
2018-12-30T21:29:04.354Z,101840.52
2018-12-30T21:31:32.686Z,101844.58
2018-12-30T21:34:01.037Z,101836.80
2018-12-30T21:36:29.404Z,101835.11
2018-12-30T21:38:57.762Z,101832.27
2018-12-30T21:41:26.752Z,101833.06
2018-12-30T21:43:55.090Z,101832.09
2018-12-30T21:46:23.423Z,101835.03
2018-12-30T21:48:51.925Z,101833.47
2018-12-30T21:51:20.297Z,101835.61
2018-12-30T21:53:48.851Z,101835.73
2018-12-30T21:56:17.191Z,101831.80
2018-12-30T21:58:45.513Z,101825.14
2018-12-30T22:01:14.072Z,101818.14
2018-12-30T22:03:42.942Z,101818.56
2018-12-30T22:06:11.253Z,101827.05
2018-12-30T22:08:39.565Z,101820.59
2018-12-30T22:11:07.918Z,101815.86
2018-12-30T22:13:36.316Z,101803.95
2018-12-30T22:16:04.731Z,101808.09
2018-12-30T22:18:33.066Z,101803.94
2018-12-30T22:21:01.405Z,101809.05
2018-12-30T22:23:29.831Z,101811.52
2018-12-30T22:25:58.165Z,101811.86
2018-12-30T22:28:26.490Z,101817.34
2018-12-30T22:30:54.847Z,101816.56
2018-12-30T22:33:23.186Z,101818.11
2018-12-30T22:35:51.522Z,101817.08
2018-12-30T22:38:19.872Z,101810.39
2018-12-30T22:40:48.235Z,101810.81
2018-12-30T22:43:16.553Z,101815.54
2018-12-30T22:45:44.923Z,101817.91
2018-12-30T22:48:13.930Z,101810.75
2018-12-30T22:50:42.304Z,101814.13
2018-12-30T22:53:10.681Z,101817.42
2018-12-30T22:55:39.049Z,101816.36
2018-12-30T22:58:07.430Z,101814.62
2018-12-30T23:00:40.130Z,101816.56
2018-12-30T23:03:08.459Z,101818.19
2018-12-30T23:05:36.817Z,101819.66
2018-12-30T23:08:05.227Z,101812.16
2018-12-30T23:10:33.607Z,101818.41
2018-12-30T23:13:01.949Z,101821.21
2018-12-30T23:15:30.366Z,101811.66
2018-12-30T23:17:58.756Z,101804.87
2018-12-30T23:20:27.129Z,101798.63
2018-12-30T23:22:55.501Z,101797.70
2018-12-30T23:25:23.883Z,101801.55
2018-12-30T23:27:53.087Z,101802.53
2018-12-30T23:30:21.405Z,101800.86
2018-12-30T23:32:49.813Z,101808.62
2018-12-30T23:35:18.535Z,101818.67
2018-12-30T23:37:46.858Z,101818.18
2018-12-30T23:40:15.955Z,101821.84
2018-12-30T23:42:44.406Z,101815.36
2018-12-30T23:45:12.778Z,101817.66
2018-12-30T23:47:41.122Z,101807.94
2018-12-30T23:50:09.573Z,101803.22
2018-12-30T23:52:37.944Z,101805.26
2018-12-30T23:55:06.463Z,101803.94
2018-12-30T23:57:34.810Z,101803.30
